sensor_id;sensor_type;location;lat;lon;timestamp;P1;P2;P0
62981;PMS5003;49075;53.988;27.678;2024-03-06T01:59:32;50.6;45.8;32.4
62981;PMS5003;49075;53.988;27.678;2024-03-06T02:04:44;45;42.2;31.6
62981;PMS5003;49075;53.988;27.678;2024-03-06T02:09:32;43.4;41.2;30.8
62981;PMS5003;49075;53.988;27.678;2024-03-06T02:14:32;47.4;42.6;31
62981;PMS5003;49075;53.988;27.678;2024-03-06T02:19:50;47.8;44.4;32.2
62981;PMS5003;49075;53.988;27.678;2024-03-06T02:24:32;38.6;37.8;28.4
62981;PMS5003;49075;53.988;27.678;2024-03-06T02:29:24;44.8;41;30.2
62981;PMS5003;49075;53.988;27.678;2024-03-06T02:35:04;41;38.8;29
62981;PMS5003;49075;53.988;27.678;2024-03-06T02:39:24;41;38.8;29
62981;PMS5003;49075;53.988;27.678;2024-03-06T02:44:32;44.2;40.6;28.8
62981;PMS5003;49075;53.988;27.678;2024-03-06T02:49:24;47;43.6;32.2
62981;PMS5003;49075;53.988;27.678;2024-03-06T02:54:36;47.4;42.8;30
62981;PMS5003;49075;53.988;27.678;2024-03-06T02:59:24;43.6;39.8;29.8
62981;PMS5003;49075;53.988;27.678;2024-03-06T03:04:24;43.8;40.8;30.6
62981;PMS5003;49075;53.988;27.678;2024-03-06T03:09:36;39.6;38.2;28.2
62981;PMS5003;49075;53.988;27.678;2024-03-06T03:15:00;37.2;36;27
62981;PMS5003;49075;53.988;27.678;2024-03-06T03:19:36;43.2;40.6;29.6
62981;PMS5003;49075;53.988;27.678;2024-03-06T03:24:24;43.8;41;29.4
62981;PMS5003;49075;53.988;27.678;2024-03-06T03:29:24;49.4;44.4;32.2
62981;PMS5003;49075;53.988;27.678;2024-03-06T03:34:24;42.6;40.2;29.6
62981;PMS5003;49075;53.988;27.678;2024-03-06T03:39:24;49.8;44.5;31.5
62981;PMS5003;49075;53.988;27.678;2024-03-06T03:44:32;43;41;29.4
62981;PMS5003;49075;53.988;27.678;2024-03-06T03:49:24;49.4;44.8;31.6
62981;PMS5003;49075;53.988;27.678;2024-03-06T03:54:24;47.6;43.2;31
62981;PMS5003;49075;53.988;27.678;2024-03-06T03:59:40;50.8;44.4;32.2
62981;PMS5003;49075;53.988;27.678;2024-03-06T04:04:42;46;41.8;30
62981;PMS5003;49075;53.988;27.678;2024-03-06T04:10:14;46.6;43;30.2
62981;PMS5003;49075;53.988;27.678;2024-03-06T04:14:50;46.6;43;30.2
62981;PMS5003;49075;53.988;27.678;2024-03-06T04:19:40;39;37.4;27.6
62981;PMS5003;49075;53.988;27.678;2024-03-06T04:24:24;46.6;43;31.4
62981;PMS5003;49075;53.988;27.678;2024-03-06T04:29:24;42;38.6;28.2
62981;PMS5003;49075;53.988;27.678;2024-03-06T04:34:54;41.6;39.6;29.2
62981;PMS5003;49075;53.988;27.678;2024-03-06T04:39:54;47;42.8;31
62981;PMS5003;49075;53.988;27.678;2024-03-06T04:44:45;45.4;41.6;29.6
62981;PMS5003;49075;53.988;27.678;2024-03-06T04:49:24;40;38.6;28.4
62981;PMS5003;49075;53.988;27.678;2024-03-06T04:54:54;44.4;40.8;30.4
62981;PMS5003;49075;53.988;27.678;2024-03-06T04:59:24;42;39.6;29.4
62981;PMS5003;49075;53.988;27.678;2024-03-06T05:04:32;42;39.4;27.8
62981;PMS5003;49075;53.988;27.678;2024-03-06T05:09:24;42.6;40.4;29
62981;PMS5003;49075;53.988;27.678;2024-03-06T05:14:24;43.6;41;29
62981;PMS5003;49075;53.988;27.678;2024-03-06T05:19:32;41.4;39.4;29.6
62981;PMS5003;49075;53.988;27.678;2024-03-06T05:25:00;41.4;40;29.8
62981;PMS5003;49075;53.988;27.678;2024-03-06T05:29:42;42.4;39.8;29.2
62981;PMS5003;49075;53.988;27.678;2024-03-06T05:34:24;47.2;43;31
62981;PMS5003;49075;53.988;27.678;2024-03-06T05:39:36;44.2;40.8;29.4
62981;PMS5003;49075;53.988;27.678;2024-03-06T05:44:44;40.8;37.5;27.5
62981;PMS5003;49075;53.988;27.678;2024-03-06T05:49:56;45.2;41.2;30
62981;PMS5003;49075;53.988;27.678;2024-03-06T05:54:32;38.2;36;26.4
62981;PMS5003;49075;53.988;27.678;2024-03-06T05:59:44;39.4;37.2;27.6
62981;PMS5003;49075;53.988;27.678;2024-03-06T06:04:50;38.4;36.8;27.6
62981;PMS5003;49075;53.988;27.678;2024-03-06T06:09:50;40;37.2;26.8
62981;PMS5003;49075;53.988;27.678;2024-03-06T06:14:24;35.2;33.4;25.4
62981;PMS5003;49075;53.988;27.678;2024-03-06T06:19:24;40.6;37.8;27.2
62981;PMS5003;49075;53.988;27.678;2024-03-06T06:24:36;45.4;40.4;28.8
62981;PMS5003;49075;53.988;27.678;2024-03-06T06:29:44;37.4;35;26.8
62981;PMS5003;49075;53.988;27.678;2024-03-06T06:34:38;43;37.6;27.4
62981;PMS5003;49075;53.988;27.678;2024-03-06T06:39:24;39.8;36.4;26
62981;PMS5003;49075;53.988;27.678;2024-03-06T06:44:42;38.3;34.5;25.8
62981;PMS5003;49075;53.988;27.678;2024-03-06T06:49:50;39;35.2;25.2
62981;PMS5003;49075;53.988;27.678;2024-03-06T06:54:32;41.4;37.6;26.8
62981;PMS5003;49075;53.988;27.678;2024-03-06T06:59:32;46.4;40.4;28.8
62981;PMS5003;49075;53.988;27.678;2024-03-06T07:04:50;50;42.4;29.6
62981;PMS5003;49075;53.988;27.678;2024-03-06T07:09:24;43.2;37.8;26.6
62981;PMS5003;49075;53.988;27.678;2024-03-06T07:14:44;44.2;37.8;27.6
62981;PMS5003;49075;53.988;27.678;2024-03-06T07:19:24;40.2;36.6;27
62981;PMS5003;49075;53.988;27.678;2024-03-06T07:25:16;34;32.6;23.4
62981;PMS5003;49075;53.988;27.678;2024-03-06T07:29:42;34;32.6;23.4
62981;PMS5003;49075;53.988;27.678;2024-03-06T07:34:44;37.6;34.6;25.6
62981;PMS5003;49075;53.988;27.678;2024-03-06T07:40:12;39.3;35;24.8
62981;PMS5003;49075;53.988;27.678;2024-03-06T07:45:06;47.8;40.4;28.2
62981;PMS5003;49075;53.988;27.678;2024-03-06T07:49:36;47.8;40.4;28.2
62981;PMS5003;49075;53.988;27.678;2024-03-06T07:54:36;38.2;34.8;24.8
62981;PMS5003;49075;53.988;27.678;2024-03-06T07:59:36;42.4;37.2;27.4
62981;PMS5003;49075;53.988;27.678;2024-03-06T08:04:56;35.2;33;24.4
62981;PMS5003;49075;53.988;27.678;2024-03-06T08:09:24;39.2;35.2;25.8
62981;PMS5003;49075;53.988;27.678;2024-03-06T08:14:46;43.2;36.6;27.2
62981;PMS5003;49075;53.988;27.678;2024-03-06T08:19:54;40.4;36;26.8
62981;PMS5003;49075;53.988;27.678;2024-03-06T08:24:50;41.2;36;26
62981;PMS5003;49075;53.988;27.678;2024-03-06T08:29:24;38;34.6;25.6
62981;PMS5003;49075;53.988;27.678;2024-03-06T08:34:46;38.2;34.6;26.8
62981;PMS5003;49075;53.988;27.678;2024-03-06T08:39:36;40.4;36;26.2
62981;PMS5003;49075;53.988;27.678;2024-03-06T08:44:24;40.5;35.5;25.3
62981;PMS5003;49075;53.988;27.678;2024-03-06T08:49:24;39;35.4;25.8
62981;PMS5003;49075;53.988;27.678;2024-03-06T08:55:16;49.8;42.2;29.6
62981;PMS5003;49075;53.988;27.678;2024-03-06T08:59:32;49.8;42.2;29.6
62981;PMS5003;49075;53.988;27.678;2024-03-06T09:04:24;43;37.6;27.2
62981;PMS5003;49075;53.988;27.678;2024-03-06T09:09:36;39.8;35.6;25.8
62981;PMS5003;49075;53.988;27.678;2024-03-06T09:14:42;47;39.6;28.2
62981;PMS5003;49075;53.988;27.678;2024-03-06T09:19:42;39.6;34.8;25.6
62981;PMS5003;49075;53.988;27.678;2024-03-06T09:24:36;37.6;34;25.8
62981;PMS5003;49075;53.988;27.678;2024-03-06T09:29:36;29.6;28.6;21.4
62981;PMS5003;49075;53.988;27.678;2024-03-06T09:34:24;35.4;32.6;23.4
62981;PMS5003;49075;53.988;27.678;2024-03-06T09:39:56;33.6;31.4;23.8
62981;PMS5003;49075;53.988;27.678;2024-03-06T09:44:43;32.8;30.8;22.5
62981;PMS5003;49075;53.988;27.678;2024-03-06T09:49:42;34.8;31.8;22.6
62981;PMS5003;49075;53.988;27.678;2024-03-06T09:54:24;34.6;31.8;23.2
62981;PMS5003;49075;53.988;27.678;2024-03-06T09:59:52;37.8;33.6;24.8
62981;PMS5003;49075;53.988;27.678;2024-03-06T10:04:54;35.8;32.8;24.6
62981;PMS5003;49075;53.988;27.678;2024-03-06T10:09:34;38.2;34;25
62981;PMS5003;49075;53.988;27.678;2024-03-06T10:14:24;41;35.6;25.8
62981;PMS5003;49075;53.988;27.678;2024-03-06T10:19:56;39.8;35.4;26
62981;PMS5003;49075;53.988;27.678;2024-03-06T10:24:44;30.8;28.8;21.6
62981;PMS5003;49075;53.988;27.678;2024-03-06T10:29:25;35.2;31.8;23
62981;PMS5003;49075;53.988;27.678;2024-03-06T10:34:46;36.6;33;23.6
62981;PMS5003;49075;53.988;27.678;2024-03-06T10:39:44;36.4;32.6;23.4
62981;PMS5003;49075;53.988;27.678;2024-03-06T10:44:25;37.6;33.6;25
62981;PMS5003;49075;53.988;27.678;2024-03-06T10:49:42;37;33;24.3
62981;PMS5003;49075;53.988;27.678;2024-03-06T10:54:42;38.8;34.4;25
62981;PMS5003;49075;53.988;27.678;2024-03-06T10:59:24;33;30.6;23.4
62981;PMS5003;49075;53.988;27.678;2024-03-06T11:04:44;37;33.8;25
62981;PMS5003;49075;53.988;27.678;2024-03-06T11:09:46;40.8;36;26.2
62981;PMS5003;49075;53.988;27.678;2024-03-06T11:14:24;39;33.8;24
62981;PMS5003;49075;53.988;27.678;2024-03-06T11:19:24;38;33.4;24.6
62981;PMS5003;49075;53.988;27.678;2024-03-06T11:24:31;36.6;32.6;23.8
62981;PMS5003;49075;53.988;27.678;2024-03-06T11:30:03;36;32;23.8
62981;PMS5003;49075;53.988;27.678;2024-03-06T11:34:50;34.8;31.8;22.6
62981;PMS5003;49075;53.988;27.678;2024-03-06T11:39:42;40.4;35.6;26
62981;PMS5003;49075;53.988;27.678;2024-03-06T11:44:24;39.8;35;24.6
62981;PMS5003;49075;53.988;27.678;2024-03-06T11:49:32;35.8;32.5;24
62981;PMS5003;49075;53.988;27.678;2024-03-06T11:54:24;38.8;34.6;25.2
62981;PMS5003;49075;53.988;27.678;2024-03-06T11:59:25;36.2;33.2;25.2
62981;PMS5003;49075;53.988;27.678;2024-03-06T12:04:24;40.4;35.2;24.8
62981;PMS5003;49075;53.988;27.678;2024-03-06T12:09:24;41;35.8;25.2
62981;PMS5003;49075;53.988;27.678;2024-03-06T12:14:24;38;34.2;24.6
62981;PMS5003;49075;53.988;27.678;2024-03-06T12:19:41;43.8;37.4;26.6
62981;PMS5003;49075;53.988;27.678;2024-03-06T12:24:24;37.6;33.8;24.8
62981;PMS5003;49075;53.988;27.678;2024-03-06T12:30:00;38.6;35;25.6
62981;PMS5003;49075;53.988;27.678;2024-03-06T12:35:12;43.4;38.4;26.8
62981;PMS5003;49075;53.988;27.678;2024-03-06T12:39:24;43.4;38.4;26.8
62981;PMS5003;49075;53.988;27.678;2024-03-06T12:44:36;40.4;36;26.2
62981;PMS5003;49075;53.988;27.678;2024-03-06T12:49:32;42.8;37.8;27.3
62981;PMS5003;49075;53.988;27.678;2024-03-06T12:55:04;45.2;40.4;29
62981;PMS5003;49075;53.988;27.678;2024-03-06T12:59:46;45.2;40.4;29
62981;PMS5003;49075;53.988;27.678;2024-03-06T13:04:52;39.4;36.4;27
62981;PMS5003;49075;53.988;27.678;2024-03-06T13:09:42;45.8;40.8;29.2
62981;PMS5003;49075;53.988;27.678;2024-03-06T13:14:24;39.8;36;25.5
62981;PMS5003;49075;53.988;27.678;2024-03-06T13:19:24;42.4;38;27.4
62981;PMS5003;49075;53.988;27.678;2024-03-06T13:24:42;42.4;37.6;27.4
62981;PMS5003;49075;53.988;27.678;2024-03-06T13:29:54;41.6;37.6;27.2
62981;PMS5003;49075;53.988;27.678;2024-03-06T13:34:24;45.4;40.4;29
62981;PMS5003;49075;53.988;27.678;2024-03-06T13:39:32;39.3;37;26.5
62981;PMS5003;49075;53.988;27.678;2024-03-06T13:44:24;40.6;36.4;26.2
62981;PMS5003;49075;53.988;27.678;2024-03-06T13:49:40;40;37.6;27.2
62981;PMS5003;49075;53.988;27.678;2024-03-06T13:54:32;41.8;38.2;27.6
62981;PMS5003;49075;53.988;27.678;2024-03-06T13:59:44;36.2;34.2;25.8
62981;PMS5003;49075;53.988;27.678;2024-03-06T14:04:24;42.4;38.4;28
62981;PMS5003;49075;53.988;27.678;2024-03-06T14:09:24;37;34.5;26.5
62981;PMS5003;49075;53.988;27.678;2024-03-06T14:14:24;38.5;34.5;25
62981;PMS5003;49075;53.988;27.678;2024-03-06T14:24:44;37;35;26
62981;PMS5003;49075;53.988;27.678;2024-03-06T14:29:36;39.8;36.8;27
62981;PMS5003;49075;53.988;27.678;2024-03-06T14:34:36;50.3;43.3;29.7
62981;PMS5003;49075;53.988;27.678;2024-03-06T14:39:24;40.8;37.8;27.4
62981;PMS5003;49075;53.988;27.678;2024-03-06T14:44:36;39;36.8;27.5
62981;PMS5003;49075;53.988;27.678;2024-03-06T14:49:42;35;35;25
62981;PMS5003;49075;53.988;27.678;2024-03-06T14:54:42;43.4;39.4;28.8
62981;PMS5003;49075;53.988;27.678;2024-03-06T14:59:24;39.8;36.2;27.6
62981;PMS5003;49075;53.988;27.678;2024-03-06T15:05:05;37;33.7;25
62981;PMS5003;49075;53.988;27.678;2024-03-06T15:09:50;37;33.7;25
62981;PMS5003;49075;53.988;27.678;2024-03-06T15:14:32;35.2;34;24.8
62981;PMS5003;49075;53.988;27.678;2024-03-06T15:20:02;38;35.4;25.8
62981;PMS5003;49075;53.988;27.678;2024-03-06T15:24:54;33.5;32;24
62981;PMS5003;49075;53.988;27.678;2024-03-06T15:29:24;33.4;31;23
62981;PMS5003;49075;53.988;27.678;2024-03-06T15:34:32;36.4;34.8;25.6
62981;PMS5003;49075;53.988;27.678;2024-03-06T15:39:40;38.8;37;26.4
62981;PMS5003;49075;53.988;27.678;2024-03-06T15:44:36;35.2;34.4;25.2
62981;PMS5003;49075;53.988;27.678;2024-03-06T15:49:32;45.6;41;29.2
62981;PMS5003;49075;53.988;27.678;2024-03-06T15:54:32;32.4;31.4;23.6
62981;PMS5003;49075;53.988;27.678;2024-03-06T15:59:32;36;34.6;26.2
62981;PMS5003;49075;53.988;27.678;2024-03-06T16:04:36;35;33.4;25.6
62981;PMS5003;49075;53.988;27.678;2024-03-06T16:09:24;33.8;33.4;25.8
62981;PMS5003;49075;53.988;27.678;2024-03-06T16:14:44;32.5;31.8;25
62981;PMS5003;49075;53.988;27.678;2024-03-06T16:20:07;36.3;35;25.5
62981;PMS5003;49075;53.988;27.678;2024-03-06T16:24:32;36.3;35;25.5
62981;PMS5003;49075;53.988;27.678;2024-03-06T16:29:55;32;31;25
62981;PMS5003;49075;53.988;27.678;2024-03-06T16:34:42;31.3;30.5;22.5
62981;PMS5003;49075;53.988;27.678;2024-03-06T16:39:36;30;30;23.4
62981;PMS5003;49075;53.988;27.678;2024-03-06T16:44:24;37.2;36;26.8
62981;PMS5003;49075;53.988;27.678;2024-03-06T16:49:34;34.6;32.8;23.8
62981;PMS5003;49075;53.988;27.678;2024-03-06T16:54:42;31.6;30;21.6
62981;PMS5003;49075;53.988;27.678;2024-03-06T16:59:46;41.4;39.4;29.2
62981;PMS5003;49075;53.988;27.678;2024-03-06T17:04:56;34;31.6;23.8
62981;PMS5003;49075;53.988;27.678;2024-03-06T17:09:35;36.8;33.6;26.2
62981;PMS5003;49075;53.988;27.678;2024-03-06T17:14:32;32.2;31.8;24.6
62981;PMS5003;49075;53.988;27.678;2024-03-06T17:19:25;39.5;37.8;26.8
62981;PMS5003;49075;53.988;27.678;2024-03-06T17:29:42;38.3;36.3;26.3
62981;PMS5003;49075;53.988;27.678;2024-03-06T17:34:32;47.5;42.5;28.5
62981;PMS5003;49075;53.988;27.678;2024-03-06T18:39:32;44;41;28
62981;PMS5003;49075;53.988;27.678;2024-03-06T18:44:24;43.7;40.7;29.3
62981;PMS5003;49075;53.988;27.678;2024-03-06T18:49:35;51.3;45;31.7
62981;PMS5003;49075;53.988;27.678;2024-03-06T18:54:24;41.3;38.3;29
62981;PMS5003;49075;53.988;27.678;2024-03-06T18:59:50;40.8;38.3;28.3
62981;PMS5003;49075;53.988;27.678;2024-03-06T19:04:32;36.8;34.6;25.8
62981;PMS5003;49075;53.988;27.678;2024-03-06T19:09:24;37;35.3;26.5
62981;PMS5003;49075;53.988;27.678;2024-03-06T19:14:24;40.8;37.6;28.2
62981;PMS5003;49075;53.988;27.678;2024-03-06T19:19:24;33.8;31.6;22.8
62981;PMS5003;49075;53.988;27.678;2024-03-06T19:24:44;44.8;41;29.8
62981;PMS5003;49075;53.988;27.678;2024-03-06T19:29:45;41;38.8;29
62981;PMS5003;49075;53.988;27.678;2024-03-06T19:34:52;43;39.3;29.3
62981;PMS5003;49075;53.988;27.678;2024-03-06T19:39:55;44.8;41;30
62981;PMS5003;49075;53.988;27.678;2024-03-06T19:49:25;46.3;42;30.3
62981;PMS5003;49075;53.988;27.678;2024-03-06T19:54:25;50;44;30
62981;PMS5003;49075;53.988;27.678;2024-03-06T19:59:51;43.8;40.3;29.5
62981;PMS5003;49075;53.988;27.678;2024-03-06T20:04:43;41.6;38.8;28
62981;PMS5003;49075;53.988;27.678;2024-03-06T20:09:25;49;44.6;35
62981;PMS5003;49075;53.988;27.678;2024-03-06T20:19:25;49.7;45;34.3
62981;PMS5003;49075;53.988;27.678;2024-03-06T20:24:35;51.8;46;35.3
62981;PMS5003;49075;53.988;27.678;2024-03-06T20:29:43;59.6;50.8;38.8
62981;PMS5003;49075;53.988;27.678;2024-03-06T20:34:25;55.4;48;36.6
62981;PMS5003;49075;53.988;27.678;2024-03-06T20:39:55;29.8;29.3;23.8
62981;PMS5003;49075;53.988;27.678;2024-03-06T20:44:25;34.8;33.8;25.6
62981;PMS5003;49075;53.988;27.678;2024-03-06T20:49:25;34.2;33.6;25.2
62981;PMS5003;49075;53.988;27.678;2024-03-06T20:54:55;35.3;34.3;25.8
62981;PMS5003;49075;53.988;27.678;2024-03-06T20:59:25;34.4;32.4;25.6
62981;PMS5003;49075;53.988;27.678;2024-03-06T21:04:37;38.6;37.4;28
62981;PMS5003;49075;53.988;27.678;2024-03-06T21:09:25;35.2;35;27
62981;PMS5003;49075;53.988;27.678;2024-03-06T21:14:45;37.2;35.4;27.6
62981;PMS5003;49075;53.988;27.678;2024-03-06T21:19:25;33.2;31.4;23.8
62981;PMS5003;49075;53.988;27.678;2024-03-06T21:24:51;37.4;36;27.6
62981;PMS5003;49075;53.988;27.678;2024-03-06T21:29:25;35.2;34;27.8
62981;PMS5003;49075;53.988;27.678;2024-03-06T21:34:25;35.2;34.8;26.6
62981;PMS5003;49075;53.988;27.678;2024-03-06T21:39:55;28;27.3;24
62981;PMS5003;49075;53.988;27.678;2024-03-06T21:44:43;28.8;28.4;24.4
62981;PMS5003;49075;53.988;27.678;2024-03-06T21:49:47;30.6;30.6;23.8
62981;PMS5003;49075;53.988;27.678;2024-03-06T21:54:43;28.2;27.6;24.2
62981;PMS5003;49075;53.988;27.678;2024-03-06T21:59:25;27.2;27;22.2
62981;PMS5003;49075;53.988;27.678;2024-03-06T22:05:07;38.8;38;28
62981;PMS5003;49075;53.988;27.678;2024-03-06T22:09:57;38.8;38;28
62981;PMS5003;49075;53.988;27.678;2024-03-06T22:14:25;33.4;32.2;24
62981;PMS5003;49075;53.988;27.678;2024-03-06T22:19:25;27.8;27.2;22
62981;PMS5003;49075;53.988;27.678;2024-03-06T22:24:51;34.4;33.8;27
62981;PMS5003;49075;53.988;27.678;2024-03-06T22:29:25;43.2;40.2;29
62981;PMS5003;49075;53.988;27.678;2024-03-06T22:34:37;33.6;33.2;26.6
62981;PMS5003;49075;53.988;27.678;2024-03-06T22:39:45;32.3;31.3;23.8
62981;PMS5003;49075;53.988;27.678;2024-03-06T22:44:37;37.4;35.6;28
62981;PMS5003;49075;53.988;27.678;2024-03-06T22:49:47;31.8;30.6;24
62981;PMS5003;49075;53.988;27.678;2024-03-06T22:54:25;30.6;30;24.4
62981;PMS5003;49075;53.988;27.678;2024-03-06T22:59:33;31.2;30.4;24
62981;PMS5003;49075;53.988;27.678;2024-03-06T23:04:25;34;33.8;26.6
62981;PMS5003;49075;53.988;27.678;2024-03-06T23:10:07;35;34.6;27.4
62981;PMS5003;49075;53.988;27.678;2024-03-06T23:14:55;35;34.6;27.4
62981;PMS5003;49075;53.988;27.678;2024-03-06T23:19:43;28.2;27.4;23
62981;PMS5003;49075;53.988;27.678;2024-03-06T23:24:33;38.2;37;28.6
62981;PMS5003;49075;53.988;27.678;2024-03-06T23:29:25;36.6;35.8;27.6
62981;PMS5003;49075;53.988;27.678;2024-03-06T23:34:25;32.2;31.8;25.4
62981;PMS5003;49075;53.988;27.678;2024-03-06T23:39:49;30.8;30.6;24.8
62981;PMS5003;49075;53.988;27.678;2024-03-06T23:44:35;33.3;32.5;26
62981;PMS5003;49075;53.988;27.678;2024-03-06T23:49:43;30;29;23.8
62981;PMS5003;49075;53.988;27.678;2024-03-06T23:54:51;36.6;35;27
